sensor_id;sensor_type;location;lat;lon;timestamp;pressure;altitude;pressure_sealevel;temperature;humidity
14253;BME280;7210;51.502;10.722;2024-03-06T00:02:24;99785.44;;;5.64;100.00
14253;BME280;7210;51.502;10.722;2024-03-06T00:04:51;99783.81;;;5.63;100.00
14253;BME280;7210;51.502;10.722;2024-03-06T00:07:19;99790.69;;;5.64;100.00
14253;BME280;7210;51.502;10.722;2024-03-06T00:09:50;99791.28;;;5.66;100.00
14253;BME280;7210;51.502;10.722;2024-03-06T00:12:17;99793.91;;;5.66;100.00
14253;BME280;7210;51.502;10.722;2024-03-06T00:14:44;99801.59;;;5.67;100.00
14253;BME280;7210;51.502;10.722;2024-03-06T00:17:13;99799.59;;;5.69;100.00
14253;BME280;7210;51.502;10.722;2024-03-06T00:19:40;99807.28;;;5.71;100.00
14253;BME280;7210;51.502;10.722;2024-03-06T00:22:07;99808.91;;;5.72;100.00
14253;BME280;7210;51.502;10.722;2024-03-06T00:24:34;99806.84;;;5.67;100.00
14253;BME280;7210;51.502;10.722;2024-03-06T00:27:01;99788.19;;;5.56;100.00
14253;BME280;7210;51.502;10.722;2024-03-06T00:29:30;99817.78;;;5.71;100.00
14253;BME280;7210;51.502;10.722;2024-03-06T00:31:58;99815.16;;;5.71;100.00
14253;BME280;7210;51.502;10.722;2024-03-06T00:34:26;99828.06;;;5.72;100.00
14253;BME280;7210;51.502;10.722;2024-03-06T00:36:54;99831.50;;;5.73;100.00
14253;BME280;7210;51.502;10.722;2024-03-06T00:39:21;99835.56;;;5.75;100.00
14253;BME280;7210;51.502;10.722;2024-03-06T00:41:48;99836.34;;;5.76;100.00
14253;BME280;7210;51.502;10.722;2024-03-06T00:44:15;99833.13;;;5.74;100.00
14253;BME280;7210;51.502;10.722;2024-03-06T00:46:43;99837.34;;;5.75;100.00
14253;BME280;7210;51.502;10.722;2024-03-06T00:49:10;99831.13;;;5.76;100.00
14253;BME280;7210;51.502;10.722;2024-03-06T00:51:38;99829.88;;;5.72;100.00
14253;BME280;7210;51.502;10.722;2024-03-06T00:54:06;99831.25;;;5.68;100.00
14253;BME280;7210;51.502;10.722;2024-03-06T00:56:37;99832.66;;;5.64;100.00
14253;BME280;7210;51.502;10.722;2024-03-06T00:59:07;99821.72;;;5.60;100.00
14253;BME280;7210;51.502;10.722;2024-03-06T01:01:36;99829.75;;;5.59;100.00
14253;BME280;7210;51.502;10.722;2024-03-06T01:04:03;99829.75;;;5.59;100.00
14253;BME280;7210;51.502;10.722;2024-03-06T01:06:31;99830.59;;;5.59;100.00
14253;BME280;7210;51.502;10.722;2024-03-06T01:08:59;99831.38;;;5.60;100.00
14253;BME280;7210;51.502;10.722;2024-03-06T01:11:26;99834.84;;;5.60;100.00
14253;BME280;7210;51.502;10.722;2024-03-06T01:13:53;99835.00;;;5.59;100.00
14253;BME280;7210;51.502;10.722;2024-03-06T01:16:21;99829.31;;;5.55;100.00
14253;BME280;7210;51.502;10.722;2024-03-06T01:18:49;99838.50;;;5.66;100.00
14253;BME280;7210;51.502;10.722;2024-03-06T01:21:16;99836.88;;;5.65;100.00
14253;BME280;7210;51.502;10.722;2024-03-06T01:23:44;99836.28;;;5.63;100.00
14253;BME280;7210;51.502;10.722;2024-03-06T01:26:12;99831.38;;;5.60;100.00
14253;BME280;7210;51.502;10.722;2024-03-06T01:28:39;99812.81;;;5.55;100.00
14253;BME280;7210;51.502;10.722;2024-03-06T01:31:06;99825.53;;;5.58;100.00
14253;BME280;7210;51.502;10.722;2024-03-06T01:33:33;99820.91;;;5.60;100.00
14253;BME280;7210;51.502;10.722;2024-03-06T01:36:00;99824.69;;;5.57;100.00
14253;BME280;7210;51.502;10.722;2024-03-06T01:38:28;99798.03;;;5.54;100.00
14253;BME280;7210;51.502;10.722;2024-03-06T01:40:55;99804.50;;;5.51;100.00
14253;BME280;7210;51.502;10.722;2024-03-06T01:43:25;99785.59;;;5.35;100.00
14253;BME280;7210;51.502;10.722;2024-03-06T01:45:53;99810.66;;;5.44;100.00
14253;BME280;7210;51.502;10.722;2024-03-06T01:48:23;99822.41;;;5.48;100.00
14253;BME280;7210;51.502;10.722;2024-03-06T01:50:52;99815.91;;;5.44;100.00
14253;BME280;7210;51.502;10.722;2024-03-06T01:53:20;99822.78;;;5.45;100.00
14253;BME280;7210;51.502;10.722;2024-03-06T01:55:48;99827.00;;;5.46;100.00
14253;BME280;7210;51.502;10.722;2024-03-06T01:58:15;99832.09;;;5.47;100.00
14253;BME280;7210;51.502;10.722;2024-03-06T02:00:44;99822.78;;;5.45;100.00
14253;BME280;7210;51.502;10.722;2024-03-06T02:03:13;99823.16;;;5.42;100.00
14253;BME280;7210;51.502;10.722;2024-03-06T02:05:41;99829.03;;;5.44;100.00
14253;BME280;7210;51.502;10.722;2024-03-06T02:08:09;99825.16;;;5.40;100.00
14253;BME280;7210;51.502;10.722;2024-03-06T02:10:36;99817.94;;;5.42;100.00
14253;BME280;7210;51.502;10.722;2024-03-06T02:13:03;99825.16;;;5.40;100.00
14253;BME280;7210;51.502;10.722;2024-03-06T02:15:30;99832.38;;;5.38;100.00
14253;BME280;7210;51.502;10.722;2024-03-06T02:18:05;99839.28;;;5.39;100.00
14253;BME280;7210;51.502;10.722;2024-03-06T02:20:33;99846.16;;;5.40;100.00
14253;BME280;7210;51.502;10.722;2024-03-06T02:23:01;99836.22;;;5.35;100.00
14253;BME280;7210;51.502;10.722;2024-03-06T02:25:28;99838.47;;;5.38;100.00
14253;BME280;7210;51.502;10.722;2024-03-06T02:27:55;99850.38;;;5.41;100.00
14253;BME280;7210;51.502;10.722;2024-03-06T02:30:22;99841.25;;;5.37;100.00
14253;BME280;7210;51.502;10.722;2024-03-06T02:32:49;99846.50;;;5.37;100.00
14253;BME280;7210;51.502;10.722;2024-03-06T02:35:17;99837.75;;;5.30;100.00
14253;BME280;7210;51.502;10.722;2024-03-06T02:37:46;99853.38;;;5.38;100.00
14253;BME280;7210;51.502;10.722;2024-03-06T02:40:13;99852.91;;;5.34;100.00
14253;BME280;7210;51.502;10.722;2024-03-06T02:42:40;99855.75;;;5.33;100.00
14253;BME280;7210;51.502;10.722;2024-03-06T02:45:08;99852.25;;;5.26;100.00
14253;BME280;7210;51.502;10.722;2024-03-06T02:47:35;99850.75;;;5.17;100.00
14253;BME280;7210;51.502;10.722;2024-03-06T02:50:03;99864.47;;;5.19;100.00
14253;BME280;7210;51.502;10.722;2024-03-06T02:52:30;99881.81;;;5.20;100.00
14253;BME280;7210;51.502;10.722;2024-03-06T02:54:59;99880.19;;;5.19;100.00
14253;BME280;7210;51.502;10.722;2024-03-06T02:57:27;99881.97;;;5.18;100.00
14253;BME280;7210;51.502;10.722;2024-03-06T02:59:55;99874.88;;;5.12;100.00
14253;BME280;7210;51.502;10.722;2024-03-06T03:02:23;99886.44;;;5.18;100.00
14253;BME280;7210;51.502;10.722;2024-03-06T03:04:55;99896.91;;;5.18;100.00
14253;BME280;7210;51.502;10.722;2024-03-06T03:07:23;99889.41;;;5.15;100.00
14253;BME280;7210;51.502;10.722;2024-03-06T03:09:50;99895.09;;;5.18;100.00
14253;BME280;7210;51.502;10.722;2024-03-06T03:12:19;99895.09;;;5.18;100.00
14253;BME280;7210;51.502;10.722;2024-03-06T03:14:49;99906.41;;;5.19;100.00
14253;BME280;7210;51.502;10.722;2024-03-06T03:17:18;99906.41;;;5.19;100.00
14253;BME280;7210;51.502;10.722;2024-03-06T03:19:46;99918.50;;;5.20;100.00
14253;BME280;7210;51.502;10.722;2024-03-06T03:22:13;99916.50;;;5.22;100.00
14253;BME280;7210;51.502;10.722;2024-03-06T03:24:41;99921.13;;;5.20;100.00
14253;BME280;7210;51.502;10.722;2024-03-06T03:27:09;99922.13;;;5.19;100.00
14253;BME280;7210;51.502;10.722;2024-03-06T03:29:38;99923.13;;;5.18;100.00
14253;BME280;7210;51.502;10.722;2024-03-06T03:32:05;99927.38;;;5.19;100.00
14253;BME280;7210;51.502;10.722;2024-03-06T03:34:33;99925.75;;;5.18;100.00
14253;BME280;7210;51.502;10.722;2024-03-06T03:37:01;99937.47;;;5.22;100.00
14253;BME280;7210;51.502;10.722;2024-03-06T03:39:31;99933.44;;;5.19;100.00
14253;BME280;7210;51.502;10.722;2024-03-06T03:41:58;99934.84;;;5.22;100.00
14253;BME280;7210;51.502;10.722;2024-03-06T03:44:25;99932.22;;;5.22;100.00
14253;BME280;7210;51.502;10.722;2024-03-06T03:46:54;99944.97;;;5.25;100.00
14253;BME280;7210;51.502;10.722;2024-03-06T03:49:21;99946.94;;;5.23;100.00
14253;BME280;7210;51.502;10.722;2024-03-06T03:51:48;99941.72;;;5.23;100.00
14253;BME280;7210;51.502;10.722;2024-03-06T03:54:15;99951.22;;;5.24;100.00
14253;BME280;7210;51.502;10.722;2024-03-06T03:56:43;99934.59;;;5.17;100.00
14253;BME280;7210;51.502;10.722;2024-03-06T03:59:10;99941.47;;;5.18;100.00
14253;BME280;7210;51.502;10.722;2024-03-06T04:01:38;99958.09;;;5.25;100.00
14253;BME280;7210;51.502;10.722;2024-03-06T04:04:07;99954.47;;;5.26;100.00
14253;BME280;7210;51.502;10.722;2024-03-06T04:06:37;99957.09;;;5.26;100.00
14253;BME280;7210;51.502;10.722;2024-03-06T04:09:05;99959.69;;;5.26;100.00
14253;BME280;7210;51.502;10.722;2024-03-06T04:11:38;99965.75;;;5.26;100.00
14253;BME280;7210;51.502;10.722;2024-03-06T04:14:05;99959.69;;;5.26;100.00
14253;BME280;7210;51.502;10.722;2024-03-06T04:16:32;99961.69;;;5.24;100.00
14253;BME280;7210;51.502;10.722;2024-03-06T04:19:02;99959.88;;;5.24;100.00
14253;BME280;7210;51.502;10.722;2024-03-06T04:21:30;99964.31;;;5.24;100.00
14253;BME280;7210;51.502;10.722;2024-03-06T04:23:57;99960.06;;;5.23;100.00
14253;BME280;7210;51.502;10.722;2024-03-06T04:26:25;99966.28;;;5.22;100.00
14253;BME280;7210;51.502;10.722;2024-03-06T04:28:53;99968.28;;;5.20;100.00
14253;BME280;7210;51.502;10.722;2024-03-06T04:31:20;99962.25;;;5.19;100.00
14253;BME280;7210;51.502;10.722;2024-03-06T04:33:47;99971.75;;;5.20;100.00
14253;BME280;7210;51.502;10.722;2024-03-06T04:36:14;99976.97;;;5.20;100.00
14253;BME280;7210;51.502;10.722;2024-03-06T04:38:43;99975.78;;;5.23;100.00
14253;BME280;7210;51.502;10.722;2024-03-06T04:41:10;99976.59;;;5.23;100.00
14253;BME280;7210;51.502;10.722;2024-03-06T04:43:37;99980.06;;;5.24;100.00
14253;BME280;7210;51.502;10.722;2024-03-06T04:46:04;99979.06;;;5.25;100.00
14253;BME280;7210;51.502;10.722;2024-03-06T04:48:34;99985.09;;;5.25;100.00
14253;BME280;7210;51.502;10.722;2024-03-06T04:51:04;99976.22;;;5.26;100.00
14253;BME280;7210;51.502;10.722;2024-03-06T04:53:31;99984.91;;;5.27;100.00
14253;BME280;7210;51.502;10.722;2024-03-06T04:55:59;99978.41;;;5.23;100.00
14253;BME280;7210;51.502;10.722;2024-03-06T04:58:26;99985.28;;;5.24;100.00
14253;BME280;7210;51.502;10.722;2024-03-06T05:00:54;99976.97;;;5.20;100.00
14253;BME280;7210;51.502;10.722;2024-03-06T05:03:21;99965.41;;;5.15;100.00
14253;BME280;7210;51.502;10.722;2024-03-06T05:05:48;99984.00;;;5.20;100.00
14253;BME280;7210;51.502;10.722;2024-03-06T05:08:15;99975.53;;;5.18;100.00
14253;BME280;7210;51.502;10.722;2024-03-06T05:10:42;99980.78;;;5.18;100.00
14253;BME280;7210;51.502;10.722;2024-03-06T05:13:10;99975.69;;;5.16;100.00
14253;BME280;7210;51.502;10.722;2024-03-06T05:15:38;99988.63;;;5.18;100.00
14253;BME280;7210;51.502;10.722;2024-03-06T05:18:06;99988.63;;;5.18;100.00
14253;BME280;7210;51.502;10.722;2024-03-06T05:20:34;99993.03;;;5.17;100.00
14253;BME280;7210;51.502;10.722;2024-03-06T05:23:01;99998.13;;;5.19;100.00
14253;BME280;7210;51.502;10.722;2024-03-06T05:25:28;99998.75;;;5.21;100.00
14253;BME280;7210;51.502;10.722;2024-03-06T05:27:55;100009.06;;;5.22;100.00
14253;BME280;7210;51.502;10.722;2024-03-06T05:30:24;100012.47;;;5.23;100.00
14253;BME280;7210;51.502;10.722;2024-03-06T05:32:51;100016.09;;;5.22;100.00
14253;BME280;7210;51.502;10.722;2024-03-06T05:35:18;100007.59;;;5.20;100.00
14253;BME280;7210;51.502;10.722;2024-03-06T05:37:45;100014.47;;;5.21;100.00
14253;BME280;7210;51.502;10.722;2024-03-06T05:40:12;100002.91;;;5.15;100.00
14253;BME280;7210;51.502;10.722;2024-03-06T05:42:40;100000.28;;;5.15;100.00
14253;BME280;7210;51.502;10.722;2024-03-06T05:45:08;100027.41;;;5.22;100.00
14253;BME280;7210;51.502;10.722;2024-03-06T05:47:39;100017.28;;;5.19;100.00
14253;BME280;7210;51.502;10.722;2024-03-06T05:50:08;100007.41;;;5.07;100.00
14253;BME280;7210;51.502;10.722;2024-03-06T05:52:37;100026.56;;;5.22;100.00
14253;BME280;7210;51.502;10.722;2024-03-06T05:55:05;100029.84;;;5.24;100.00
14253;BME280;7210;51.502;10.722;2024-03-06T05:57:32;100035.25;;;5.22;100.00
14253;BME280;7210;51.502;10.722;2024-03-06T05:59:59;100028.19;;;5.23;100.00
14253;BME280;7210;51.502;10.722;2024-03-06T06:02:27;100038.69;;;5.23;100.00
14253;BME280;7210;51.502;10.722;2024-03-06T06:04:55;100039.31;;;5.25;100.00
14253;BME280;7210;51.502;10.722;2024-03-06T06:07:22;100045.81;;;5.29;100.00
14253;BME280;7210;51.502;10.722;2024-03-06T06:09:56;100053.06;;;5.27;100.00
14253;BME280;7210;51.502;10.722;2024-03-06T06:12:23;100061.00;;;5.33;100.00
14253;BME280;7210;51.502;10.722;2024-03-06T06:14:55;100044.28;;;5.20;100.00
14253;BME280;7210;51.502;10.722;2024-03-06T06:17:23;100066.25;;;5.33;100.00
14253;BME280;7210;51.502;10.722;2024-03-06T06:19:50;100071.31;;;5.35;100.00
14253;BME280;7210;51.502;10.722;2024-03-06T06:22:18;100067.69;;;5.36;100.00
14253;BME280;7210;51.502;10.722;2024-03-06T06:24:45;100076.00;;;5.39;100.00
14253;BME280;7210;51.502;10.722;2024-03-06T06:27:14;100070.31;;;5.36;100.00
14253;BME280;7210;51.502;10.722;2024-03-06T06:29:41;100084.50;;;5.41;100.00
14253;BME280;7210;51.502;10.722;2024-03-06T06:32:08;100081.69;;;5.43;100.00
14253;BME280;7210;51.502;10.722;2024-03-06T06:34:35;100081.69;;;5.43;100.00
14253;BME280;7210;51.502;10.722;2024-03-06T06:37:07;100088.56;;;5.44;100.00
14253;BME280;7210;51.502;10.722;2024-03-06T06:39:39;100085.78;;;5.45;100.00
14253;BME280;7210;51.502;10.722;2024-03-06T06:42:06;100090.19;;;5.45;100.00
14253;BME280;7210;51.502;10.722;2024-03-06T06:44:33;100083.31;;;5.44;100.00
14253;BME280;7210;51.502;10.722;2024-03-06T06:47:00;100091.81;;;5.46;100.00
14253;BME280;7210;51.502;10.722;2024-03-06T06:49:27;100101.13;;;5.48;100.00
14253;BME280;7210;51.502;10.722;2024-03-06T06:51:54;100107.81;;;5.51;100.00
14253;BME280;7210;51.502;10.722;2024-03-06T06:54:25;100103.59;;;5.50;100.00
14253;BME280;7210;51.502;10.722;2024-03-06T06:56:57;100115.88;;;5.49;100.00
14253;BME280;7210;51.502;10.722;2024-03-06T06:59:24;100110.81;;;5.48;100.00
14253;BME280;7210;51.502;10.722;2024-03-06T07:01:51;100110.16;;;5.46;100.00
14253;BME280;7210;51.502;10.722;2024-03-06T07:04:19;100123.56;;;5.51;100.00
14253;BME280;7210;51.502;10.722;2024-03-06T07:06:47;100129.09;;;5.56;100.00
14253;BME280;7210;51.502;10.722;2024-03-06T07:09:14;100136.41;;;5.60;100.00
14253;BME280;7210;51.502;10.722;2024-03-06T07:11:42;100132.34;;;5.58;100.00
14253;BME280;7210;51.502;10.722;2024-03-06T07:14:12;100156.13;;;5.71;100.00
14253;BME280;7210;51.502;10.722;2024-03-06T07:16:42;100158.38;;;5.74;100.00
14253;BME280;7210;51.502;10.722;2024-03-06T07:19:10;100153.50;;;5.71;100.00
14253;BME280;7210;51.502;10.722;2024-03-06T07:21:37;100165.69;;;5.78;100.00
14253;BME280;7210;51.502;10.722;2024-03-06T07:24:05;100162.94;;;5.80;100.00
14253;BME280;7210;51.502;10.722;2024-03-06T07:26:32;100166.19;;;5.82;100.00
14253;BME280;7210;51.502;10.722;2024-03-06T07:29:00;100156.50;;;5.82;100.00
14253;BME280;7210;51.502;10.722;2024-03-06T07:31:29;100157.69;;;5.80;100.00
14253;BME280;7210;51.502;10.722;2024-03-06T07:33:57;100150.97;;;5.77;100.00
14253;BME280;7210;51.502;10.722;2024-03-06T07:36:25;100164.56;;;5.81;100.00
14253;BME280;7210;51.502;10.722;2024-03-06T07:38:52;100173.88;;;5.83;100.00
14253;BME280;7210;51.502;10.722;2024-03-06T07:41:20;100169.44;;;5.84;100.00
14253;BME280;7210;51.502;10.722;2024-03-06T07:43:47;100181.03;;;5.89;100.00
14253;BME280;7210;51.502;10.722;2024-03-06T07:46:14;100184.91;;;5.93;100.00
14253;BME280;7210;51.502;10.722;2024-03-06T07:48:45;100202.38;;;6.01;100.00
14253;BME280;7210;51.502;10.722;2024-03-06T07:51:13;100203.25;;;6.08;100.00
14253;BME280;7210;51.502;10.722;2024-03-06T07:53:40;100202.44;;;6.07;100.00
14253;BME280;7210;51.502;10.722;2024-03-06T07:56:10;100217.16;;;6.23;100.00
14253;BME280;7210;51.502;10.722;2024-03-06T07:58:38;100226.16;;;6.28;100.00
14253;BME280;7210;51.502;10.722;2024-03-06T08:01:06;100220.44;;;6.25;100.00
14253;BME280;7210;51.502;10.722;2024-03-06T08:03:34;100218.28;;;6.28;100.00
14253;BME280;7210;51.502;10.722;2024-03-06T08:06:03;100217.44;;;6.28;100.00
14253;BME280;7210;51.502;10.722;2024-03-06T08:08:32;100215.81;;;6.27;100.00
14253;BME280;7210;51.502;10.722;2024-03-06T08:10:59;100225.03;;;6.37;100.00
14253;BME280;7210;51.502;10.722;2024-03-06T08:13:32;100235.16;;;6.40;100.00
14253;BME280;7210;51.502;10.722;2024-03-06T08:15:59;100246.56;;;6.47;100.00
14253;BME280;7210;51.502;10.722;2024-03-06T08:18:26;100253.16;;;6.58;99.79
14253;BME280;7210;51.502;10.722;2024-03-06T08:20:53;100259.00;;;6.74;100.00
14253;BME280;7210;51.502;10.722;2024-03-06T08:23:22;100273.09;;;6.88;99.83
14253;BME280;7210;51.502;10.722;2024-03-06T08:25:50;100269.53;;;6.95;99.15
14253;BME280;7210;51.502;10.722;2024-03-06T08:28:18;100241.28;;;6.83;98.83
14253;BME280;7210;51.502;10.722;2024-03-06T08:30:45;100272.47;;;7.07;98.33
14253;BME280;7210;51.502;10.722;2024-03-06T08:33:12;100293.47;;;7.21;98.33
14253;BME280;7210;51.502;10.722;2024-03-06T08:35:40;100291.50;;;7.29;97.99
14253;BME280;7210;51.502;10.722;2024-03-06T08:38:07;100274.84;;;7.22;97.61
14253;BME280;7210;51.502;10.722;2024-03-06T08:40:36;100286.34;;;7.36;97.56
14253;BME280;7210;51.502;10.722;2024-03-06T08:43:04;100286.38;;;7.42;96.68
14253;BME280;7210;51.502;10.722;2024-03-06T08:45:32;100291.50;;;7.50;96.32
14253;BME280;7210;51.502;10.722;2024-03-06T08:47:59;100281.59;;;7.52;95.97
14253;BME280;7210;51.502;10.722;2024-03-06T08:50:26;100290.34;;;7.59;95.23
14253;BME280;7210;51.502;10.722;2024-03-06T08:52:56;100325.34;;;7.81;95.39
14253;BME280;7210;51.502;10.722;2024-03-06T08:55:23;100322.78;;;7.87;94.94
14253;BME280;7210;51.502;10.722;2024-03-06T08:57:51;100332.19;;;8.03;94.47
14253;BME280;7210;51.502;10.722;2024-03-06T09:00:20;100355.06;;;8.23;94.46
14253;BME280;7210;51.502;10.722;2024-03-06T09:02:47;100325.00;;;8.18;93.76
14253;BME280;7210;51.502;10.722;2024-03-06T09:05:20;100307.56;;;8.10;93.40
14253;BME280;7210;51.502;10.722;2024-03-06T09:07:50;100338.88;;;8.26;93.08
14253;BME280;7210;51.502;10.722;2024-03-06T09:10:17;100309.47;;;8.23;92.67
14253;BME280;7210;51.502;10.722;2024-03-06T09:12:45;100339.75;;;8.33;92.48
14253;BME280;7210;51.502;10.722;2024-03-06T09:15:15;100340.56;;;8.40;92.15
14253;BME280;7210;51.502;10.722;2024-03-06T09:17:42;100337.16;;;8.46;91.71
14253;BME280;7210;51.502;10.722;2024-03-06T09:20:10;100330.66;;;8.42;91.47
14253;BME280;7210;51.502;10.722;2024-03-06T09:22:38;100342.25;;;8.48;91.02
14253;BME280;7210;51.502;10.722;2024-03-06T09:25:06;100348.13;;;8.50;90.68
14253;BME280;7210;51.502;10.722;2024-03-06T09:27:34;100378.41;;;8.67;90.76
14253;BME280;7210;51.502;10.722;2024-03-06T09:30:01;100358.31;;;8.59;90.59
14253;BME280;7210;51.502;10.722;2024-03-06T09:32:45;100353.81;;;8.53;90.16
14253;BME280;7210;51.502;10.722;2024-03-06T09:35:12;100372.09;;;8.61;90.15
14253;BME280;7210;51.502;10.722;2024-03-06T09:37:45;100394.72;;;8.77;89.95
14253;BME280;7210;51.502;10.722;2024-03-06T09:40:20;100422.47;;;9.20;89.31
14253;BME280;7210;51.502;10.722;2024-03-06T09:42:48;100421.75;;;9.45;88.47
14253;BME280;7210;51.502;10.722;2024-03-06T09:45:15;100426.66;;;9.61;88.13
14253;BME280;7210;51.502;10.722;2024-03-06T09:47:45;100340.53;;;9.34;86.90
14253;BME280;7210;51.502;10.722;2024-03-06T09:50:17;100367.72;;;9.41;86.68
14253;BME280;7210;51.502;10.722;2024-03-06T09:52:50;100410.41;;;9.64;86.46
14253;BME280;7210;51.502;10.722;2024-03-06T09:55:18;100364.53;;;9.59;85.77
14253;BME280;7210;51.502;10.722;2024-03-06T09:57:46;100361.31;;;9.70;84.82
14253;BME280;7210;51.502;10.722;2024-03-06T10:00:14;100374.72;;;9.81;84.56
14253;BME280;7210;51.502;10.722;2024-03-06T10:02:51;100348.50;;;9.73;84.12
14253;BME280;7210;51.502;10.722;2024-03-06T10:05:22;100287.16;;;9.45;83.35
14253;BME280;7210;51.502;10.722;2024-03-06T10:07:50;100386.06;;;9.82;83.54
14253;BME280;7210;51.502;10.722;2024-03-06T10:10:19;100344.22;;;9.66;83.29
14253;BME280;7210;51.502;10.722;2024-03-06T10:12:49;100339.34;;;9.69;82.63
14253;BME280;7210;51.502;10.722;2024-03-06T10:15:16;100356.81;;;9.70;82.99
14253;BME280;7210;51.502;10.722;2024-03-06T10:17:43;100400.09;;;9.95;82.55
14253;BME280;7210;51.502;10.722;2024-03-06T10:20:24;100370.25;;;9.88;82.18
14253;BME280;7210;51.502;10.722;2024-03-06T10:22:53;100335.50;;;9.52;82.30
14253;BME280;7210;51.502;10.722;2024-03-06T10:25:21;100377.16;;;9.76;81.80
14253;BME280;7210;51.502;10.722;2024-03-06T10:28:07;100378.53;;;9.72;81.79
14253;BME280;7210;51.502;10.722;2024-03-06T10:30:35;100369.00;;;9.71;81.45
14253;BME280;7210;51.502;10.722;2024-03-06T10:33:03;100354.00;;;9.72;81.00
14253;BME280;7210;51.502;10.722;2024-03-06T10:35:33;100390.53;;;9.75;81.15
14253;BME280;7210;51.502;10.722;2024-03-06T10:38:02;100401.94;;;9.82;81.17
14253;BME280;7210;51.502;10.722;2024-03-06T10:40:32;100404.38;;;9.77;81.33
14253;BME280;7210;51.502;10.722;2024-03-06T10:42:59;100480.22;;;10.09;81.02
14253;BME280;7210;51.502;10.722;2024-03-06T10:45:41;100345.66;;;9.88;79.62
14253;BME280;7210;51.502;10.722;2024-03-06T10:48:15;100397.66;;;10.00;79.89
14253;BME280;7210;51.502;10.722;2024-03-06T10:50:46;100344.25;;;9.98;78.81
14253;BME280;7210;51.502;10.722;2024-03-06T10:53:14;100390.38;;;10.28;78.49
14253;BME280;7210;51.502;10.722;2024-03-06T10:55:44;100371.84;;;10.41;77.92
14253;BME280;7210;51.502;10.722;2024-03-06T10:58:12;100380.81;;;10.47;77.83
14253;BME280;7210;51.502;10.722;2024-03-06T11:00:41;100364.09;;;10.59;77.02
14253;BME280;7210;51.502;10.722;2024-03-06T11:03:11;100367.75;;;10.58;77.17
14253;BME280;7210;51.502;10.722;2024-03-06T11:05:39;100318.13;;;10.60;75.90
14253;BME280;7210;51.502;10.722;2024-03-06T11:08:09;100391.63;;;10.96;75.98
14253;BME280;7210;51.502;10.722;2024-03-06T11:10:39;100390.81;;;11.02;76.02
14253;BME280;7210;51.502;10.722;2024-03-06T11:13:21;100322.50;;;10.86;74.81
14253;BME280;7210;51.502;10.722;2024-03-06T11:15:52;100391.84;;;10.94;75.44
14253;BME280;7210;51.502;10.722;2024-03-06T11:18:42;100457.72;;;11.15;75.79
14253;BME280;7210;51.502;10.722;2024-03-06T11:21:31;100423.31;;;11.15;75.19
14253;BME280;7210;51.502;10.722;2024-03-06T11:24:21;100344.34;;;11.12;73.66
14253;BME280;7210;51.502;10.722;2024-03-06T11:26:50;100379.78;;;11.05;74.01
14253;BME280;7210;51.502;10.722;2024-03-06T11:29:22;100342.84;;;10.85;73.90
14253;BME280;7210;51.502;10.722;2024-03-06T11:32:05;100374.09;;;11.01;73.69
14253;BME280;7210;51.502;10.722;2024-03-06T11:34:34;100392.81;;;11.06;73.81
14253;BME280;7210;51.502;10.722;2024-03-06T11:37:05;100441.75;;;11.34;73.36
14253;BME280;7210;51.502;10.722;2024-03-06T11:39:39;100402.88;;;11.35;73.08
14253;BME280;7210;51.502;10.722;2024-03-06T11:42:07;100403.63;;;11.42;72.91
14253;BME280;7210;51.502;10.722;2024-03-06T11:44:35;100400.38;;;11.40;72.82
14253;BME280;7210;51.502;10.722;2024-03-06T11:47:04;100348.66;;;11.37;71.86
14253;BME280;7210;51.502;10.722;2024-03-06T11:49:35;100237.59;;;11.24;70.76
14253;BME280;7210;51.502;10.722;2024-03-06T11:52:05;100274.16;;;11.34;70.70
14253;BME280;7210;51.502;10.722;2024-03-06T11:54:34;100191.75;;;11.24;69.52
14253;BME280;7210;51.502;10.722;2024-03-06T11:57:05;100270.06;;;11.38;70.13
14253;BME280;7210;51.502;10.722;2024-03-06T11:59:34;100276.59;;;11.35;70.07
14253;BME280;7210;51.502;10.722;2024-03-06T12:02:04;100302.34;;;11.22;70.19
14253;BME280;7210;51.502;10.722;2024-03-06T12:04:33;100224.69;;;10.73;70.42
14253;BME280;7210;51.502;10.722;2024-03-06T12:07:02;100174.81;;;10.45;69.95
14253;BME280;7210;51.502;10.722;2024-03-06T12:09:32;100239.13;;;10.26;71.00
14253;BME280;7210;51.502;10.722;2024-03-06T12:11:59;100355.38;;;10.52;71.37
14253;BME280;7210;51.502;10.722;2024-03-06T12:14:29;100389.31;;;10.55;71.20
14253;BME280;7210;51.502;10.722;2024-03-06T12:16:57;100375.28;;;10.61;70.78
14253;BME280;7210;51.502;10.722;2024-03-06T12:19:26;100434.22;;;10.81;71.00
14253;BME280;7210;51.502;10.722;2024-03-06T12:21:59;100354.25;;;10.86;69.76
14253;BME280;7210;51.502;10.722;2024-03-06T12:24:26;100253.31;;;10.82;68.54
14253;BME280;7210;51.502;10.722;2024-03-06T12:27:00;100231.34;;;10.82;68.48
14253;BME280;7210;51.502;10.722;2024-03-06T12:29:31;100191.16;;;10.67;67.98
14253;BME280;7210;51.502;10.722;2024-03-06T12:32:00;100320.84;;;10.91;68.61
14253;BME280;7210;51.502;10.722;2024-03-06T12:34:28;100342.78;;;10.98;68.95
14253;BME280;7210;51.502;10.722;2024-03-06T12:36:56;100450.91;;;11.38;69.12
14253;BME280;7210;51.502;10.722;2024-03-06T12:39:23;100474.88;;;11.63;68.76
14253;BME280;7210;51.502;10.722;2024-03-06T12:42:02;100377.53;;;11.52;68.08
14253;BME280;7210;51.502;10.722;2024-03-06T12:44:30;100428.03;;;11.50;69.16
14253;BME280;7210;51.502;10.722;2024-03-06T12:46:57;100447.19;;;11.59;68.83
14253;BME280;7210;51.502;10.722;2024-03-06T12:49:24;100480.94;;;11.70;68.83
14253;BME280;7210;51.502;10.722;2024-03-06T12:51:51;100504.53;;;11.78;69.35
14253;BME280;7210;51.502;10.722;2024-03-06T12:54:19;100540.78;;;11.84;69.46
14253;BME280;7210;51.502;10.722;2024-03-06T12:56:46;100520.09;;;11.68;69.63
14253;BME280;7210;51.502;10.722;2024-03-06T12:59:13;100367.34;;;11.49;68.05
14253;BME280;7210;51.502;10.722;2024-03-06T13:01:42;100375.75;;;11.39;68.62
14253;BME280;7210;51.502;10.722;2024-03-06T13:04:10;100387.94;;;11.47;68.38